createdAt,value
2018-05-26T00:02:27.432Z,997.43
2018-05-26T00:05:06.639Z,999.90
2018-05-26T00:07:38.639Z,999.90
2018-05-26T00:10:11.588Z,999.90
2018-05-26T00:12:45.610Z,999.90
2018-05-26T00:15:19.391Z,999.90
2018-05-26T00:17:54.239Z,986.03
2018-05-26T00:20:27.538Z,999.90
2018-05-26T00:23:06.657Z,999.90
2018-05-26T00:25:40.333Z,999.90
2018-05-26T00:28:14.527Z,999.90
2018-05-26T00:30:46.434Z,997.17
2018-05-26T00:33:18.346Z,953.70
2018-05-26T00:35:51.232Z,957.83
2018-05-26T00:38:24.583Z,990.47
2018-05-26T00:40:57.155Z,996.97
2018-05-26T00:43:32.212Z,992.87
2018-05-26T00:46:06.755Z,950.70
2018-05-26T00:48:41.650Z,891.70
2018-05-26T00:51:18.052Z,934.47
2018-05-26T00:53:50.835Z,951.70
2018-05-26T00:56:24.393Z,971.50
2018-05-26T00:58:57.550Z,960.90
2018-05-26T01:01:30.313Z,879.77
2018-05-26T01:04:05.018Z,969.27
2018-05-26T01:06:37.036Z,882.20
2018-05-26T01:09:11.154Z,866.97
2018-05-26T01:11:43.419Z,894.43
2018-05-26T01:14:17.176Z,864.63
2018-05-26T01:16:50.336Z,860.33
2018-05-26T01:19:23.617Z,909.37
2018-05-26T01:21:58.234Z,846.57
2018-05-26T01:24:31.994Z,902.67
2018-05-26T01:27:04.954Z,882.53
2018-05-26T01:29:37.633Z,878.17
2018-05-26T01:32:11.434Z,967.47
2018-05-26T01:34:46.055Z,940.73
2018-05-26T01:37:19.868Z,908.53
2018-05-26T01:39:53.793Z,895.57
2018-05-26T01:42:26.733Z,898.57
2018-05-26T01:44:59.855Z,862.53
2018-05-26T01:47:32.738Z,845.67
2018-05-26T01:50:06.517Z,817.67
2018-05-26T01:52:41.094Z,903.20
2018-05-26T01:55:17.076Z,850.07
2018-05-26T01:57:50.295Z,862.03
2018-05-26T02:00:23.558Z,867.53
2018-05-26T02:02:56.075Z,832.67
2018-05-26T02:05:29.014Z,698.30
2018-05-26T02:08:01.233Z,768.07
2018-05-26T02:10:34.295Z,871.30
2018-05-26T02:13:07.715Z,922.50
2018-05-26T02:15:40.875Z,869.33
2018-05-26T02:18:13.611Z,896.97
2018-05-26T02:20:47.177Z,860.73
2018-05-26T02:23:22.353Z,870.30
2018-05-26T02:25:55.675Z,796.27
2018-05-26T02:28:29.833Z,646.40
2018-05-26T02:31:03.255Z,668.80
2018-05-26T02:33:38.214Z,725.53
2018-05-26T02:36:12.579Z,786.07
2018-05-26T02:38:45.849Z,671.70
2018-05-26T02:41:18.515Z,633.77
2018-05-26T02:43:51.556Z,624.23
2018-05-26T02:46:23.912Z,529.30
2018-05-26T02:48:56.854Z,797.63
2018-05-26T02:51:31.092Z,818.27
2018-05-26T02:54:05.495Z,795.00
2018-05-26T02:56:39.349Z,819.60
2018-05-26T02:59:13.052Z,728.20
2018-05-26T03:01:45.572Z,705.13
2018-05-26T03:04:22.737Z,784.43
2018-05-26T03:07:00.034Z,623.13
2018-05-26T03:09:39.113Z,709.83
2018-05-26T03:12:17.673Z,541.90
2018-05-26T03:14:49.298Z,643.67
2018-05-26T03:17:39.994Z,746.30
2018-05-26T03:20:14.315Z,774.53
2018-05-26T03:22:47.712Z,539.07
2018-05-26T03:25:22.713Z,584.73
2018-05-26T03:27:55.180Z,715.03
2018-05-26T03:30:27.714Z,729.40
2018-05-26T03:33:01.918Z,693.00
2018-05-26T03:35:36.732Z,686.70
2018-05-26T03:38:09.757Z,652.13
2018-05-26T03:40:44.555Z,639.13
2018-05-26T03:43:17.312Z,599.87
2018-05-26T03:45:50.529Z,570.87
2018-05-26T03:48:23.974Z,729.27
2018-05-26T03:51:00.552Z,747.23
2018-05-26T03:53:33.835Z,746.37
2018-05-26T03:56:22.874Z,804.20
2018-05-26T03:59:15.391Z,829.93
2018-05-26T04:01:49.539Z,658.40
2018-05-26T04:04:25.672Z,788.10
2018-05-26T04:06:59.416Z,768.93
2018-05-26T04:09:32.615Z,740.33
2018-05-26T04:12:07.053Z,659.97
2018-05-26T04:14:41.178Z,771.47
2018-05-26T04:17:14.896Z,807.73
2018-05-26T04:19:50.492Z,769.33
2018-05-26T04:22:23.411Z,818.00
2018-05-26T04:24:56.074Z,781.37
2018-05-26T04:27:29.757Z,775.17
2018-05-26T04:30:03.094Z,741.60
2018-05-26T04:32:36.873Z,860.37
2018-05-26T04:35:11.196Z,867.20
2018-05-26T04:37:46.318Z,871.83
2018-05-26T04:40:18.935Z,841.47
2018-05-26T04:42:52.150Z,825.07
2018-05-26T04:45:26.473Z,865.63
2018-05-26T04:48:00.152Z,818.93
2018-05-26T04:50:36.312Z,878.00
2018-05-26T04:53:10.435Z,870.93
2018-05-26T04:55:43.133Z,882.77
2018-05-26T04:58:17.316Z,896.77
2018-05-26T05:00:50.952Z,834.53
2018-05-26T05:03:24.648Z,908.17
2018-05-26T05:05:59.229Z,907.43
2018-05-26T05:08:32.752Z,907.87
2018-05-26T05:11:05.496Z,882.00
2018-05-26T05:13:40.314Z,893.53
2018-05-26T05:16:14.092Z,891.80
2018-05-26T05:18:48.051Z,918.63
2018-05-26T05:21:20.972Z,887.70
2018-05-26T05:23:54.495Z,647.33
2018-05-26T05:26:27.712Z,645.77
2018-05-26T05:29:01.015Z,662.90
2018-05-26T05:31:33.578Z,653.00
2018-05-26T05:34:08.513Z,593.03
2018-05-26T05:36:40.673Z,705.23
2018-05-26T05:39:14.351Z,871.10
2018-05-26T05:41:47.321Z,796.67
2018-05-26T05:44:19.436Z,777.00
2018-05-26T05:46:51.492Z,787.80
2018-05-26T05:49:23.874Z,714.27
2018-05-26T05:51:57.128Z,723.03
2018-05-26T05:54:29.116Z,807.70
2018-05-26T05:57:01.972Z,783.13
2018-05-26T05:59:34.374Z,656.57
2018-05-26T06:02:07.497Z,774.70
2018-05-26T06:04:41.211Z,711.87
2018-05-26T06:07:14.172Z,725.87
2018-05-26T06:09:47.418Z,649.40
2018-05-26T06:12:20.119Z,454.87
2018-05-26T06:14:54.122Z,968.50
2018-05-26T06:17:29.013Z,826.30
2018-05-26T06:20:02.167Z,800.53
2018-05-26T06:22:35.391Z,880.40
2018-05-26T06:25:09.878Z,700.20
2018-05-26T06:27:41.939Z,999.90
2018-05-26T06:30:15.701Z,823.63
2018-05-26T06:32:50.258Z,870.07
2018-05-26T06:35:24.277Z,155.63
2018-05-26T06:38:02.255Z,622.30
2018-05-26T06:40:37.633Z,466.17
2018-05-26T06:43:10.354Z,481.53
2018-05-26T06:45:43.156Z,459.30
2018-05-26T06:48:20.742Z,549.90
2018-05-26T06:50:53.134Z,999.90
2018-05-26T06:53:26.276Z,999.90
2018-05-26T06:55:58.873Z,527.13
2018-05-26T06:58:31.734Z,340.07
2018-05-26T07:01:04.269Z,218.77
2018-05-26T07:03:40.313Z,89.90
2018-05-26T07:06:12.355Z,104.60
2018-05-26T07:08:46.118Z,98.65
2018-05-26T07:11:18.876Z,47.60
2018-05-26T07:13:52.389Z,37.88
2018-05-26T07:16:26.836Z,29.85
2018-05-26T07:19:00.114Z,64.20
2018-05-26T07:21:34.030Z,60.33
2018-05-26T07:24:06.579Z,103.00
2018-05-26T07:26:42.056Z,104.03
2018-05-26T07:29:14.436Z,159.30
2018-05-26T07:31:48.373Z,209.70
2018-05-26T07:34:21.314Z,288.92
2018-05-26T07:36:54.117Z,329.65
2018-05-26T07:39:31.173Z,309.45
2018-05-26T07:42:03.772Z,414.48
2018-05-26T07:44:36.012Z,271.95
2018-05-26T07:47:10.748Z,356.42
2018-05-26T07:49:43.814Z,419.65
2018-05-26T07:52:22.757Z,490.02
2018-05-26T07:54:56.252Z,439.27
2018-05-26T07:57:33.069Z,999.90
2018-05-26T08:00:06.623Z,999.90
2018-05-26T08:02:40.031Z,451.40
2018-05-26T08:05:21.195Z,422.13
2018-05-26T08:07:56.318Z,342.25
2018-05-26T08:10:30.516Z,275.42
2018-05-26T08:13:04.060Z,945.13
2018-05-26T08:15:37.313Z,440.65
2018-05-26T08:18:09.817Z,336.55
2018-05-26T08:20:43.148Z,269.05
2018-05-26T08:23:16.534Z,268.05
2018-05-26T08:25:50.255Z,282.12
2018-05-26T08:28:24.156Z,281.40
2018-05-26T08:31:07.076Z,262.50
2018-05-26T08:33:41.098Z,181.98
2018-05-26T08:36:16.395Z,202.07
2018-05-26T08:38:50.937Z,212.27
2018-05-26T08:41:23.337Z,160.85
2018-05-26T08:43:59.737Z,149.93
2018-05-26T08:46:31.930Z,155.30
2018-05-26T08:49:05.877Z,123.20
2018-05-26T08:51:40.440Z,89.87
2018-05-26T08:54:15.254Z,67.50
2018-05-26T08:56:49.072Z,53.92
2018-05-26T08:59:22.198Z,54.78
2018-05-26T09:01:58.244Z,62.50
2018-05-26T09:04:38.213Z,54.80
2018-05-26T09:07:13.235Z,56.47
2018-05-26T09:09:46.033Z,59.33
2018-05-26T09:12:21.830Z,59.45
2018-05-26T09:14:56.367Z,59.97
2018-05-26T09:17:30.839Z,63.53
2018-05-26T09:20:07.076Z,59.22
2018-05-26T09:22:39.655Z,70.67
2018-05-26T09:25:13.271Z,95.57
2018-05-26T09:27:51.172Z,70.77
2018-05-26T09:30:24.132Z,74.03
2018-05-26T09:32:56.404Z,65.20
2018-05-26T09:35:33.295Z,89.13
2018-05-26T09:38:06.394Z,400.13
2018-05-26T09:40:40.552Z,67.53
2018-05-26T09:43:15.597Z,90.83
2018-05-26T09:45:52.935Z,52.50
2018-05-26T09:48:25.692Z,48.53
2018-05-26T09:50:58.814Z,132.90
2018-05-26T09:53:31.314Z,59.30
2018-05-26T09:56:05.032Z,58.83
2018-05-26T09:58:41.074Z,59.93
2018-05-26T10:01:18.095Z,56.57
2018-05-26T10:03:51.332Z,53.87
2018-05-26T10:06:25.279Z,62.57
2018-05-26T10:08:58.498Z,56.47
2018-05-26T10:11:32.337Z,54.97
2018-05-26T10:14:07.274Z,52.13
2018-05-26T10:16:39.814Z,45.77
2018-05-26T10:19:14.272Z,59.07
2018-05-26T10:21:49.594Z,51.83
2018-05-26T10:24:23.591Z,59.57
2018-05-26T10:27:03.762Z,54.90
2018-05-26T10:29:38.276Z,61.50
2018-05-26T10:32:13.766Z,73.13
2018-05-26T10:34:47.100Z,128.63
2018-05-26T10:37:22.091Z,93.82
2018-05-26T10:39:55.811Z,68.40
2018-05-26T10:42:31.191Z,61.13
2018-05-26T10:45:07.977Z,59.72
2018-05-26T10:47:43.392Z,57.55
2018-05-26T10:50:27.011Z,65.97
2018-05-26T10:53:03.910Z,55.77
2018-05-26T10:55:37.575Z,94.87
2018-05-26T10:58:13.254Z,61.08
2018-05-26T11:00:49.898Z,80.25
2018-05-26T11:03:23.396Z,48.57
2018-05-26T11:05:56.777Z,63.87
2018-05-26T11:08:30.832Z,65.85
2018-05-26T11:11:05.055Z,53.92
2018-05-26T11:13:38.303Z,57.42
2018-05-26T11:16:12.306Z,61.90
2018-05-26T11:18:46.841Z,49.72
2018-05-26T11:21:20.434Z,52.30
2018-05-26T11:23:54.163Z,60.45
2018-05-26T11:26:27.002Z,68.10
2018-05-26T11:29:01.065Z,52.47
2018-05-26T11:31:35.095Z,56.87
2018-05-26T11:34:07.079Z,71.07
2018-05-26T11:36:44.798Z,64.33
2018-05-26T11:39:20.217Z,71.30
2018-05-26T11:41:54.036Z,61.25
2018-05-26T13:10:52.493Z,81.43
2018-05-26T13:13:27.456Z,87.62
2018-05-26T13:16:00.758Z,64.12
2018-05-26T13:18:35.975Z,77.65
2018-05-26T13:21:10.539Z,77.97
2018-05-26T13:23:44.536Z,78.78
2018-05-26T13:26:17.934Z,69.80
2018-05-26T13:28:52.615Z,63.20
2018-05-26T13:31:28.358Z,69.55
2018-05-26T13:34:01.816Z,61.17
2018-05-26T13:36:34.675Z,65.37
2018-05-26T13:39:10.674Z,64.65
2018-05-26T13:41:43.912Z,335.35
2018-05-26T13:44:17.977Z,90.65
2018-05-26T13:46:51.070Z,72.53
2018-05-26T13:49:24.134Z,61.05
2018-05-26T13:51:57.695Z,60.25
2018-05-26T13:54:32.727Z,70.37
2018-05-26T13:57:05.696Z,115.85
2018-05-26T13:59:38.797Z,93.62
2018-05-26T14:02:15.611Z,102.87
2018-05-26T14:04:51.077Z,94.25
2018-05-26T14:07:24.073Z,75.30
2018-05-26T14:09:58.610Z,145.50
2018-05-26T14:12:32.031Z,57.53
2018-05-26T14:15:06.598Z,59.17
2018-05-26T14:18:05.858Z,75.70
2018-05-26T14:20:41.998Z,48.13
2018-05-26T14:23:20.859Z,146.73
2018-05-26T14:25:55.432Z,103.60
2018-05-26T14:28:30.935Z,57.50
2018-05-26T14:31:07.258Z,77.70
2018-05-26T14:33:40.134Z,65.60
2018-05-26T14:36:12.289Z,73.45
2018-05-26T14:38:45.651Z,57.80
2018-05-26T14:41:18.056Z,66.83
2018-05-26T14:43:51.356Z,58.27
2018-05-26T16:10:02.795Z,58.65
2018-05-26T16:12:35.933Z,75.28
2018-05-26T16:15:09.178Z,71.90
2018-05-26T16:17:42.291Z,74.45
2018-05-26T16:20:15.655Z,139.88
2018-05-26T16:22:48.577Z,97.40
2018-05-26T16:25:21.472Z,190.23
2018-05-26T16:27:55.896Z,78.35
2018-05-26T16:30:30.969Z,59.72
2018-05-26T16:33:05.032Z,90.45
2018-05-26T16:35:39.996Z,59.17
2018-05-26T16:38:14.353Z,70.12
2018-05-26T16:40:50.513Z,61.95
2018-05-26T16:43:24.555Z,62.67
2018-05-26T16:45:59.648Z,56.83
2018-05-26T16:48:33.735Z,59.63
2018-05-26T16:51:07.569Z,55.72
2018-05-26T16:53:42.654Z,67.12
2018-05-26T16:56:19.617Z,61.00
2018-05-26T16:58:51.808Z,71.83
2018-05-26T17:01:27.474Z,56.37
2018-05-26T17:04:00.119Z,68.60
2018-05-26T17:06:32.336Z,64.83
2018-05-26T17:09:07.090Z,70.33
2018-05-26T17:11:40.416Z,63.20
2018-05-26T17:14:13.448Z,83.53
2018-05-26T17:16:49.450Z,92.70
2018-05-26T17:19:25.376Z,147.83
2018-05-26T17:21:59.355Z,126.80
2018-05-26T17:24:35.015Z,92.77
2018-05-26T17:27:07.814Z,183.17
2018-05-26T17:29:40.840Z,231.60
2018-05-26T17:32:14.577Z,99.10
2018-05-26T17:34:47.296Z,393.80
2018-05-26T17:37:20.767Z,171.57
2018-05-26T17:39:52.873Z,120.43
2018-05-26T17:42:25.693Z,296.03
2018-05-26T17:44:58.656Z,300.67
2018-05-26T17:47:32.814Z,111.63
2018-05-26T17:50:05.199Z,511.97
2018-05-26T17:52:39.857Z,259.80
2018-05-26T17:55:13.778Z,283.77
2018-05-26T17:57:46.980Z,380.80
2018-05-26T18:00:22.414Z,648.90
2018-05-26T18:02:54.955Z,457.73
2018-05-26T18:14:25.458Z,699.23
2018-05-26T18:17:00.332Z,733.07
2018-05-26T18:19:32.621Z,776.83
2018-05-26T18:22:05.557Z,792.27
2018-05-26T18:24:38.431Z,763.60
2018-05-26T18:27:11.452Z,750.07
2018-05-26T18:29:45.132Z,731.90
2018-05-26T18:32:17.464Z,708.03
2018-05-26T18:34:49.795Z,692.90
2018-05-26T18:37:23.214Z,632.60
2018-05-26T18:39:56.078Z,588.23
2018-05-26T18:42:28.575Z,539.50
2018-05-26T18:45:01.917Z,512.20
2018-05-26T18:47:35.563Z,411.70
2018-05-26T18:50:09.698Z,308.90
2018-05-26T18:52:42.911Z,716.40
2018-05-26T18:55:19.658Z,293.53
2018-05-26T18:57:53.351Z,483.60
2018-05-26T19:00:26.276Z,456.30
2018-05-26T19:02:59.622Z,338.27
2018-05-26T19:05:33.359Z,348.20
2018-05-26T19:08:11.392Z,344.33
2018-05-26T19:10:47.393Z,458.90
2018-05-26T19:13:19.617Z,675.90
2018-05-26T19:15:52.434Z,996.20
2018-05-26T19:18:26.033Z,999.90
2018-05-26T19:20:57.639Z,999.90
2018-05-26T19:23:30.778Z,999.90
2018-05-26T19:26:05.974Z,999.90
2018-05-26T19:28:38.075Z,999.90
2018-05-26T19:31:10.777Z,999.90
2018-05-26T19:33:44.552Z,999.90
2018-05-26T19:36:19.851Z,999.90
2018-05-26T19:38:54.654Z,999.90
2018-05-26T19:41:26.975Z,999.90
2018-05-26T19:44:00.780Z,999.90
2018-05-26T19:46:34.733Z,999.90
2018-05-26T19:49:08.230Z,999.90
2018-05-26T19:51:42.535Z,734.87
2018-05-26T19:54:16.594Z,522.27
2018-05-26T19:56:48.757Z,304.67
2018-05-26T19:59:24.330Z,275.07
2018-05-26T20:01:57.215Z,386.80
2018-05-26T20:04:29.995Z,748.97
2018-05-26T20:07:02.829Z,846.53
2018-05-26T20:09:35.874Z,898.50
2018-05-26T20:12:13.153Z,897.77
2018-05-26T20:14:45.075Z,564.20
2018-05-26T20:17:18.170Z,243.13
2018-05-26T20:19:52.554Z,456.50
2018-05-26T20:22:26.473Z,948.37
2018-05-26T20:24:59.012Z,940.17
2018-05-26T20:27:34.180Z,999.90
2018-05-26T20:30:08.197Z,999.90
2018-05-26T20:32:40.811Z,999.90
2018-05-26T20:35:15.518Z,999.90
2018-05-26T20:37:49.978Z,999.90
2018-05-26T20:40:23.613Z,999.90
2018-05-26T20:42:57.191Z,999.90
2018-05-26T20:45:29.749Z,999.90
2018-05-26T20:48:03.315Z,990.80
2018-05-26T20:50:36.035Z,959.10
2018-05-26T20:53:09.678Z,982.83
2018-05-26T20:55:42.860Z,955.30
2018-05-26T21:16:03.518Z,586.87
2018-05-26T21:18:37.989Z,605.97
2018-05-26T21:21:10.752Z,779.20
2018-05-26T21:23:44.214Z,999.30
2018-05-26T21:26:17.460Z,999.90
2018-05-26T21:28:51.275Z,999.90
2018-05-26T21:31:24.698Z,999.90
2018-05-26T21:33:57.297Z,996.33
2018-05-26T21:36:30.572Z,875.77
2018-05-26T21:39:05.715Z,662.13
2018-05-26T21:41:38.752Z,585.10
2018-05-26T21:44:13.095Z,578.87
2018-05-26T21:46:47.514Z,545.30
2018-05-26T21:49:20.056Z,794.17
2018-05-26T21:51:53.377Z,805.63
2018-05-26T21:54:26.983Z,853.33
2018-05-26T21:57:01.295Z,903.23
2018-05-26T21:59:36.193Z,942.27
2018-05-26T22:02:08.831Z,974.90
2018-05-26T22:04:40.813Z,991.97
2018-05-26T22:07:13.872Z,999.90
2018-05-26T22:09:45.833Z,999.90
2018-05-26T22:34:32.338Z,999.90
2018-05-26T22:37:04.785Z,999.90
2018-05-26T22:39:37.784Z,999.90
2018-05-26T22:42:11.044Z,999.90
2018-05-26T22:44:45.185Z,943.33
2018-05-26T22:47:17.159Z,866.83
2018-05-26T22:49:50.102Z,629.37
2018-05-26T22:52:22.384Z,465.07
2018-05-26T22:54:55.821Z,376.30
2018-05-26T22:57:29.964Z,346.00
2018-05-26T23:00:07.578Z,355.63
2018-05-26T23:02:40.825Z,323.57
2018-05-26T23:05:13.397Z,405.97
2018-05-26T23:07:46.879Z,375.90
2018-05-26T23:10:19.638Z,386.70
2018-05-26T23:12:55.121Z,399.77
2018-05-26T23:15:28.277Z,367.93
2018-05-26T23:18:00.746Z,360.80
2018-05-26T23:20:33.257Z,363.57
2018-05-26T23:23:06.016Z,394.20
2018-05-26T23:25:39.256Z,301.40
2018-05-26T23:28:12.643Z,334.90
2018-05-26T23:30:46.623Z,298.97
2018-05-26T23:33:20.145Z,290.67
2018-05-26T23:35:52.915Z,305.27
2018-05-26T23:38:25.518Z,290.73
2018-05-26T23:40:59.000Z,270.27
2018-05-26T23:43:31.545Z,259.47
2018-05-26T23:46:03.781Z,230.87
2018-05-26T23:48:36.301Z,236.27
2018-05-26T23:51:08.999Z,221.83
2018-05-26T23:53:41.322Z,219.30
2018-05-26T23:56:13.799Z,212.97
2018-05-26T23:58:47.277Z,235.43
